createdAt,value
2018-11-02T00:02:18.834Z,16.04
2018-11-02T00:04:47.914Z,15.87
2018-11-02T00:07:17.303Z,15.83
2018-11-02T00:09:46.321Z,15.85
2018-11-02T00:12:15.353Z,15.88
2018-11-02T00:14:44.530Z,15.81
2018-11-02T00:17:13.882Z,15.72
2018-11-02T00:19:42.582Z,15.63
2018-11-02T00:22:11.671Z,15.57
2018-11-02T00:24:40.854Z,15.49
2018-11-02T00:27:09.658Z,15.49
2018-11-02T00:29:38.557Z,15.46
2018-11-02T00:32:07.807Z,15.42
2018-11-02T00:34:37.002Z,15.40
2018-11-02T00:37:06.326Z,15.31
2018-11-02T00:39:35.442Z,15.26
2018-11-02T00:42:04.685Z,15.24
2018-11-02T00:44:33.961Z,15.11
2018-11-02T00:47:03.087Z,15.18
2018-11-02T00:49:32.073Z,15.29
2018-11-02T00:52:01.357Z,15.14
2018-11-02T00:54:30.418Z,15.19
2018-11-02T00:56:59.431Z,15.36
2018-11-02T00:59:28.250Z,15.33
2018-11-02T01:01:57.125Z,15.27
2018-11-02T01:04:26.373Z,15.36
2018-11-02T01:06:55.438Z,15.36
2018-11-02T01:09:24.740Z,15.39
2018-11-02T01:11:53.918Z,15.39
2018-11-02T01:14:22.905Z,15.35
2018-11-02T01:16:52.255Z,15.34
2018-11-02T01:19:25.498Z,15.32
2018-11-02T01:21:54.507Z,15.30
2018-11-02T01:24:23.604Z,15.29
2018-11-02T01:26:52.486Z,15.29
2018-11-02T01:29:21.499Z,15.29
2018-11-02T01:31:50.818Z,15.28
2018-11-02T01:34:19.914Z,15.34
2018-11-02T01:36:49.086Z,15.36
2018-11-02T01:39:18.351Z,15.32
2018-11-02T01:41:47.655Z,15.37
2018-11-02T01:44:16.665Z,15.42
2018-11-02T01:46:45.758Z,15.50
2018-11-02T01:49:14.513Z,15.50
2018-11-02T01:51:43.909Z,15.43
2018-11-02T01:54:12.958Z,15.41
2018-11-02T01:56:42.018Z,15.43
2018-11-02T01:59:11.099Z,15.54
2018-11-02T02:01:40.310Z,15.49
2018-11-02T02:04:09.467Z,15.44
2018-11-02T02:06:38.443Z,15.49
2018-11-02T02:09:09.881Z,15.50
2018-11-02T02:11:39.155Z,15.54
2018-11-02T02:14:08.699Z,15.68
2018-11-02T02:16:37.855Z,15.67
2018-11-02T02:19:07.250Z,15.64
2018-11-02T02:21:36.209Z,15.56
2018-11-02T02:24:05.386Z,15.48
2018-11-02T02:26:34.487Z,15.34
2018-11-02T02:29:03.620Z,15.46
2018-11-02T02:31:32.779Z,15.45
2018-11-02T02:34:01.635Z,15.53
2018-11-02T02:36:30.758Z,15.50
2018-11-02T02:38:59.922Z,15.39
2018-11-02T02:41:29.215Z,15.30
2018-11-02T02:43:58.415Z,15.34
2018-11-02T02:46:27.710Z,15.30
2018-11-02T02:48:57.022Z,15.23
2018-11-02T02:51:26.311Z,15.23
2018-11-02T02:53:55.502Z,15.17
2018-11-02T02:56:24.422Z,15.29
2018-11-02T02:58:53.619Z,15.25
2018-11-02T03:01:23.007Z,15.12
2018-11-02T03:03:52.143Z,15.29
2018-11-02T03:06:21.292Z,15.43
2018-11-02T03:08:50.586Z,15.43
2018-11-02T03:11:19.964Z,15.51
2018-11-02T03:13:48.892Z,15.53
2018-11-02T03:16:18.107Z,15.48
2018-11-02T03:18:47.328Z,15.43
2018-11-02T03:21:16.505Z,15.48
2018-11-02T03:23:45.644Z,15.50
2018-11-02T03:26:14.659Z,15.29
2018-11-02T03:28:43.995Z,15.17
2018-11-02T03:31:12.683Z,15.41
2018-11-02T03:33:41.631Z,15.65
2018-11-02T03:36:10.565Z,15.64
2018-11-02T03:38:39.708Z,15.60
2018-11-02T03:41:08.902Z,15.50
2018-11-02T03:43:37.996Z,15.59
2018-11-02T03:46:06.842Z,15.65
2018-11-02T03:48:35.987Z,15.50
2018-11-02T03:51:05.171Z,15.48
2018-11-02T03:53:34.274Z,15.51
2018-11-02T03:56:03.417Z,15.46
2018-11-02T03:58:32.535Z,15.58
2018-11-02T04:01:01.762Z,15.64
2018-11-02T04:03:30.834Z,15.79
2018-11-02T04:06:00.017Z,15.78
2018-11-02T04:08:29.123Z,15.87
2018-11-02T04:10:58.203Z,15.92
2018-11-02T04:13:27.285Z,15.89
2018-11-02T04:15:56.374Z,15.74
2018-11-02T04:18:25.479Z,15.72
2018-11-02T04:20:54.755Z,15.76
2018-11-02T04:23:23.830Z,15.66
2018-11-02T04:25:53.027Z,15.50
2018-11-02T04:28:22.249Z,15.45
2018-11-02T04:30:51.571Z,15.65
2018-11-02T04:33:20.726Z,15.94
2018-11-02T04:35:49.901Z,15.92
2018-11-02T04:38:19.094Z,15.85
2018-11-02T04:40:47.795Z,15.81
2018-11-02T04:43:17.097Z,15.85
2018-11-02T04:45:46.199Z,15.83
2018-11-02T04:48:15.270Z,15.94
2018-11-02T04:50:44.389Z,15.91
2018-11-02T04:53:13.674Z,15.96
2018-11-02T04:55:42.983Z,16.01
2018-11-02T04:58:11.991Z,15.99
2018-11-02T05:00:41.167Z,16.04
2018-11-02T05:03:10.227Z,16.01
2018-11-02T05:05:39.370Z,15.99
2018-11-02T05:08:08.546Z,16.11
2018-11-02T05:10:37.699Z,16.10
2018-11-02T05:13:06.989Z,15.96
2018-11-02T05:15:35.816Z,15.85
2018-11-02T05:18:05.087Z,15.86
2018-11-02T05:20:34.184Z,15.85
2018-11-02T05:23:03.251Z,15.92
2018-11-02T05:25:32.554Z,15.97
2018-11-02T05:28:01.725Z,15.98
2018-11-02T05:30:30.432Z,16.07
2018-11-02T05:32:59.281Z,16.11
2018-11-02T05:35:28.394Z,16.13
2018-11-02T05:37:57.385Z,16.23
2018-11-02T05:40:26.559Z,16.22
2018-11-02T05:42:55.781Z,16.05
2018-11-02T05:45:25.127Z,15.98
2018-11-02T05:47:54.033Z,16.02
2018-11-02T05:50:22.812Z,16.09
2018-11-02T05:52:51.955Z,16.19
2018-11-02T05:55:21.141Z,16.30
2018-11-02T05:57:50.327Z,16.37
2018-11-02T06:00:19.647Z,16.41
2018-11-02T06:02:48.414Z,16.43
2018-11-02T06:05:17.609Z,16.47
2018-11-02T06:07:46.397Z,16.50
2018-11-02T06:10:15.287Z,16.49
2018-11-02T06:12:44.491Z,16.50
2018-11-02T06:15:13.417Z,16.54
2018-11-02T06:17:42.691Z,16.58
2018-11-02T06:20:12.083Z,16.60
2018-11-02T06:22:41.773Z,16.61
2018-11-02T06:25:11.084Z,16.62
2018-11-02T06:27:40.189Z,16.62
2018-11-02T06:30:10.269Z,16.60
2018-11-02T06:32:39.365Z,16.62
2018-11-02T06:35:09.412Z,16.69
2018-11-02T06:37:38.756Z,16.68
2018-11-02T06:40:08.118Z,16.60
2018-11-02T06:42:37.415Z,16.66
2018-11-02T06:45:07.968Z,16.64
2018-11-02T06:47:36.942Z,16.68
2018-11-02T06:50:06.114Z,16.68
2018-11-02T06:52:35.282Z,16.65
2018-11-02T06:55:04.279Z,16.61
2018-11-02T06:57:33.341Z,16.60
2018-11-02T07:00:02.868Z,16.65
2018-11-02T07:02:31.550Z,16.64
2018-11-02T07:05:00.441Z,16.64
2018-11-02T07:07:29.531Z,16.66
2018-11-02T07:09:58.690Z,16.69
2018-11-02T07:12:27.758Z,16.68
2018-11-02T07:14:56.733Z,16.72
2018-11-02T07:17:26.155Z,16.65
2018-11-02T07:19:55.050Z,16.69
2018-11-02T07:22:23.902Z,16.72
2018-11-02T07:24:53.045Z,16.74
2018-11-02T07:27:22.293Z,16.62
2018-11-02T07:29:51.566Z,16.56
2018-11-02T07:32:20.779Z,16.56
2018-11-02T07:34:49.728Z,16.60
2018-11-02T07:37:18.571Z,16.60
2018-11-02T07:39:47.679Z,16.56
2018-11-02T07:42:16.811Z,16.55
2018-11-02T07:44:45.837Z,16.49
2018-11-02T07:47:15.122Z,16.46
2018-11-02T07:49:44.493Z,16.46
2018-11-02T07:52:13.717Z,16.53
2018-11-02T07:54:42.642Z,16.54
2018-11-02T07:57:11.698Z,16.58
2018-11-02T07:59:41.049Z,16.60
2018-11-02T08:02:10.215Z,16.59
2018-11-02T08:04:39.373Z,16.62
2018-11-02T08:07:08.670Z,16.69
2018-11-02T08:09:37.865Z,16.56
2018-11-02T08:12:07.226Z,16.69
2018-11-02T08:14:36.374Z,16.64
2018-11-02T08:17:05.430Z,16.77
2018-11-02T08:19:34.575Z,16.74
2018-11-02T08:22:03.662Z,16.78
2018-11-02T08:24:32.555Z,16.80
2018-11-02T08:27:01.252Z,16.84
2018-11-02T08:29:30.315Z,16.95
2018-11-02T08:31:59.070Z,17.08
2018-11-02T08:34:28.010Z,17.24
2018-11-02T08:36:57.041Z,17.41
2018-11-02T08:39:26.022Z,17.55
2018-11-02T08:41:55.434Z,17.73
2018-11-02T08:44:24.587Z,17.83
2018-11-02T08:46:53.671Z,17.98
2018-11-02T08:49:22.363Z,18.14
2018-11-02T08:51:51.462Z,18.22
2018-11-02T08:54:20.655Z,18.30
2018-11-02T08:56:49.589Z,18.38
2018-11-02T08:59:18.805Z,18.43
2018-11-02T09:01:47.929Z,18.42
2018-11-02T09:04:16.930Z,18.43
2018-11-02T09:06:46.011Z,18.47
2018-11-02T09:09:15.213Z,18.47
2018-11-02T09:11:44.208Z,18.44
2018-11-02T09:14:13.499Z,18.39
2018-11-02T09:16:42.599Z,18.38
2018-11-02T09:19:11.985Z,18.39
2018-11-02T09:21:40.757Z,18.26
2018-11-02T09:24:09.691Z,18.07
2018-11-02T09:26:38.787Z,18.19
2018-11-02T09:29:07.599Z,18.23
2018-11-02T09:31:36.433Z,18.20
2018-11-02T09:34:05.355Z,18.18
2018-11-02T09:36:34.407Z,18.13
2018-11-02T09:39:04.223Z,17.99
2018-11-02T09:41:33.108Z,17.96
2018-11-02T09:44:01.982Z,17.97
2018-11-02T09:46:31.075Z,17.92
2018-11-02T09:49:00.334Z,17.92
2018-11-02T09:51:29.686Z,17.92
2018-11-02T09:53:58.631Z,17.86
2018-11-02T09:56:27.822Z,17.81
2018-11-02T09:58:56.982Z,17.74
2018-11-02T10:01:26.154Z,17.76
2018-11-02T10:03:55.247Z,17.68
2018-11-02T10:06:23.949Z,17.79
2018-11-02T10:08:52.918Z,17.83
2018-11-02T10:11:22.196Z,17.84
2018-11-02T10:13:51.222Z,17.87
2018-11-02T10:16:20.478Z,17.91
2018-11-02T10:18:49.683Z,17.93
2018-11-02T10:21:18.738Z,17.86
2018-11-02T10:23:47.734Z,17.96
2018-11-02T10:26:17.012Z,17.98
2018-11-02T10:28:46.099Z,18.03
2018-11-02T10:31:15.147Z,17.95
2018-11-02T10:33:44.444Z,17.76
2018-11-02T10:36:13.725Z,17.84
2018-11-02T10:38:43.123Z,17.86
2018-11-02T10:41:14.894Z,17.86
2018-11-02T10:43:44.150Z,17.94
2018-11-02T10:46:13.243Z,17.93
2018-11-02T10:48:42.339Z,17.86
2018-11-02T10:51:11.548Z,17.94
2018-11-02T10:53:40.784Z,17.99
2018-11-02T10:56:09.979Z,18.01
2018-11-02T10:58:39.312Z,18.08
2018-11-02T11:01:13.574Z,18.13
2018-11-02T11:03:42.869Z,18.11
2018-11-02T11:06:12.143Z,18.19
2018-11-02T11:08:41.366Z,18.11
2018-11-02T11:11:10.303Z,18.10
2018-11-02T11:13:39.695Z,18.14
2018-11-02T11:16:08.658Z,18.12
2018-11-02T11:18:37.869Z,18.20
2018-11-02T11:21:07.080Z,18.15
2018-11-02T11:23:36.374Z,18.00
2018-11-02T11:26:05.771Z,18.08
2018-11-02T11:28:35.110Z,18.10
2018-11-02T11:31:04.368Z,18.08
2018-11-02T11:33:33.691Z,18.12
2018-11-02T11:36:02.838Z,18.17
2018-11-02T11:38:33.985Z,18.22
2018-11-02T11:41:03.202Z,18.27
2018-11-02T11:43:32.541Z,18.24
2018-11-02T11:46:01.741Z,18.28
2018-11-02T11:48:31.057Z,18.30
2018-11-02T11:50:59.919Z,18.28
2018-11-02T11:53:28.728Z,18.32
2018-11-02T11:55:57.818Z,18.10
2018-11-02T11:58:26.850Z,18.07
2018-11-02T12:00:56.151Z,18.03
2018-11-02T12:03:25.003Z,18.09
2018-11-02T12:05:54.295Z,18.06
2018-11-02T12:08:23.583Z,18.02
2018-11-02T12:10:52.725Z,18.00
2018-11-02T12:13:22.030Z,18.05
2018-11-02T12:15:50.921Z,18.10
2018-11-02T12:18:20.127Z,18.01
2018-11-02T12:20:49.458Z,17.94
2018-11-02T12:23:18.719Z,17.98
2018-11-02T12:25:47.832Z,17.93
2018-11-02T12:28:17.169Z,17.95
2018-11-02T12:30:46.343Z,17.93
2018-11-02T12:33:15.145Z,17.90
2018-11-02T12:35:44.037Z,17.95
2018-11-02T12:38:12.982Z,17.94
2018-11-02T12:40:42.171Z,18.02
2018-11-02T12:43:11.207Z,17.84
2018-11-02T12:45:40.121Z,17.81
2018-11-02T12:48:08.975Z,17.81
2018-11-02T12:50:38.070Z,17.82
2018-11-02T12:53:07.146Z,17.88
2018-11-02T12:55:36.064Z,17.87
2018-11-02T12:58:05.472Z,17.92
2018-11-02T13:00:34.600Z,17.88
2018-11-02T13:03:03.642Z,17.87
2018-11-02T13:05:32.498Z,17.83
2018-11-02T13:08:01.488Z,17.91
2018-11-02T13:10:30.794Z,17.94
2018-11-02T13:13:00.022Z,18.00
2018-11-02T13:15:29.155Z,17.98
2018-11-02T13:17:58.300Z,18.01
2018-11-02T13:20:27.124Z,18.01
2018-11-02T13:22:56.417Z,18.04
2018-11-02T13:25:25.637Z,18.01
2018-11-02T13:27:54.818Z,17.89
2018-11-02T13:30:24.100Z,17.98
2018-11-02T13:32:53.201Z,17.86
2018-11-02T13:35:22.128Z,17.80
2018-11-02T13:37:51.466Z,17.89
2018-11-02T13:40:20.745Z,17.79
2018-11-02T13:42:49.961Z,17.67
2018-11-02T13:45:19.495Z,17.42
2018-11-02T13:47:48.753Z,17.17
2018-11-02T13:50:17.973Z,17.34
2018-11-02T13:52:47.103Z,17.27
2018-11-02T13:55:16.235Z,17.29
2018-11-02T13:57:45.957Z,17.42
2018-11-02T14:00:17.159Z,17.50
2018-11-02T14:02:46.482Z,17.56
2018-11-02T14:05:16.506Z,17.60
2018-11-02T14:07:45.801Z,17.55
2018-11-02T14:10:15.130Z,17.56
2018-11-02T14:12:44.310Z,17.60
2018-11-02T14:15:14.778Z,17.69
2018-11-02T14:17:43.815Z,17.66
2018-11-02T14:20:13.547Z,17.58
2018-11-02T14:22:42.714Z,17.61
2018-11-02T14:25:13.362Z,17.64
2018-11-02T14:27:42.389Z,17.60
2018-11-02T14:30:13.410Z,17.64
2018-11-02T14:32:42.692Z,17.61
2018-11-02T14:35:12.170Z,17.60
2018-11-02T14:37:41.352Z,17.44
2018-11-02T14:40:11.171Z,17.29
2018-11-02T14:42:41.061Z,17.36
2018-11-02T14:45:11.862Z,17.41
2018-11-02T14:47:41.133Z,17.28
2018-11-02T14:50:10.823Z,17.22
2018-11-02T14:52:39.907Z,17.25
2018-11-02T14:55:09.351Z,17.19
2018-11-02T14:57:38.762Z,17.16
2018-11-02T15:00:09.230Z,17.22
2018-11-02T15:02:38.534Z,17.24
2018-11-02T15:05:08.650Z,17.18
2018-11-02T15:07:37.887Z,17.09
2018-11-02T15:10:06.994Z,17.04
2018-11-02T15:12:36.410Z,17.02
2018-11-02T15:15:05.682Z,17.07
2018-11-02T15:17:35.046Z,16.95
2018-11-02T15:20:04.190Z,16.86
2018-11-02T15:22:33.298Z,16.90
2018-11-02T15:25:02.619Z,16.89
2018-11-02T15:27:31.470Z,16.83
2018-11-02T15:30:00.666Z,16.72
2018-11-02T15:32:29.498Z,16.77
2018-11-02T15:34:58.375Z,16.83
2018-11-02T15:37:27.290Z,16.89
2018-11-02T15:39:57.166Z,16.86
2018-11-02T15:42:26.155Z,16.86
2018-11-02T15:44:55.390Z,16.92
2018-11-02T15:47:25.453Z,16.93
2018-11-02T15:49:54.648Z,16.84
2018-11-02T15:52:23.481Z,16.68
2018-11-02T15:54:52.774Z,16.55
2018-11-02T15:57:21.577Z,16.44
2018-11-02T15:59:50.622Z,16.30
2018-11-02T16:02:19.974Z,16.19
2018-11-02T16:04:49.323Z,16.08
2018-11-02T16:07:18.541Z,16.02
2018-11-02T16:09:47.599Z,15.94
2018-11-02T16:12:16.702Z,15.82
2018-11-02T16:14:45.591Z,15.72
2018-11-02T16:17:14.799Z,15.58
2018-11-02T16:19:43.994Z,15.37
2018-11-02T16:22:13.301Z,15.25
2018-11-02T16:24:42.286Z,15.17
2018-11-02T16:27:11.454Z,15.11
2018-11-02T16:29:40.438Z,15.06
2018-11-02T16:32:09.659Z,15.01
2018-11-02T16:34:38.467Z,14.98
2018-11-02T16:37:07.658Z,14.92
2018-11-02T16:39:36.436Z,14.90
2018-11-02T16:42:05.810Z,14.85
2018-11-02T16:44:35.159Z,14.80
2018-11-02T16:47:04.465Z,14.73
2018-11-02T16:49:33.858Z,14.63
2018-11-02T16:52:03.259Z,14.54
2018-11-02T16:54:32.840Z,14.48
2018-11-02T16:57:02.050Z,14.44
2018-11-02T16:59:31.046Z,14.39
2018-11-02T17:02:00.278Z,14.38
2018-11-02T17:04:29.482Z,14.37
2018-11-02T17:06:58.626Z,14.37
2018-11-02T17:09:27.804Z,14.37
2018-11-02T17:11:57.025Z,14.39
2018-11-02T17:14:26.477Z,14.36
2018-11-02T17:16:55.411Z,14.28
2018-11-02T17:19:24.711Z,14.22
2018-11-02T17:21:53.926Z,14.08
2018-11-02T17:24:22.807Z,13.98
2018-11-02T17:26:52.105Z,13.86
2018-11-02T17:29:20.894Z,13.77
2018-11-02T17:31:50.063Z,13.69
2018-11-02T17:34:19.038Z,13.65
2018-11-02T17:36:48.070Z,13.54
2018-11-02T17:39:16.926Z,13.43
2018-11-02T17:41:46.211Z,13.33
2018-11-02T17:44:15.358Z,13.29
2018-11-02T17:46:44.420Z,13.23
2018-11-02T17:49:13.624Z,13.17
2018-11-02T17:51:42.742Z,13.16
2018-11-02T17:54:12.749Z,13.13
2018-11-02T17:56:42.048Z,13.11
2018-11-02T17:59:11.341Z,13.12
2018-11-02T18:01:40.590Z,13.06
2018-11-02T18:04:09.428Z,13.00
2018-11-02T18:06:39.195Z,12.95
2018-11-02T18:09:10.450Z,12.92
2018-11-02T18:11:39.684Z,12.89
2018-11-02T18:14:09.251Z,12.81
2018-11-02T18:16:38.025Z,12.74
2018-11-02T18:19:06.874Z,12.72
2018-11-02T18:21:36.651Z,12.70
2018-11-02T18:24:05.706Z,12.68
2018-11-02T18:26:34.880Z,12.66
2018-11-02T18:29:03.693Z,12.61
2018-11-02T18:31:32.455Z,12.56
2018-11-02T18:34:01.559Z,12.53
2018-11-02T18:36:30.336Z,12.49
2018-11-02T18:38:59.172Z,12.44
2018-11-02T18:41:28.314Z,12.41
2018-11-02T18:43:57.559Z,12.38
2018-11-02T18:46:26.837Z,12.36
2018-11-02T18:48:55.996Z,12.34
2018-11-02T18:51:25.289Z,12.37
2018-11-02T18:53:54.656Z,12.35
2018-11-02T18:56:24.069Z,12.36
2018-11-02T18:58:52.847Z,12.39
2018-11-02T19:01:21.823Z,12.46
2018-11-02T19:03:51.118Z,12.44
2018-11-02T19:06:21.148Z,12.47
2018-11-02T19:08:51.493Z,12.52
2018-11-02T19:11:21.398Z,12.54
2018-11-02T19:13:50.594Z,12.62
2018-11-02T19:16:20.494Z,12.71
2018-11-02T19:18:49.459Z,12.78
2018-11-02T19:21:18.781Z,12.91
2018-11-02T19:23:47.995Z,13.01
2018-11-02T19:26:17.003Z,13.08
2018-11-02T19:28:46.131Z,13.14
2018-11-02T19:31:15.438Z,13.22
2018-11-02T19:33:44.881Z,13.34
2018-11-02T19:36:14.205Z,13.41
2018-11-02T19:38:43.447Z,13.50
2018-11-02T19:41:12.475Z,13.60
2018-11-02T19:43:41.530Z,13.67
2018-11-02T19:46:10.825Z,13.75
2018-11-02T19:48:40.142Z,13.85
2018-11-02T19:51:09.217Z,13.89
2018-11-02T19:53:38.647Z,13.94
2018-11-02T19:56:07.706Z,13.99
2018-11-02T19:58:37.054Z,14.00
2018-11-02T20:01:06.280Z,14.05
2018-11-02T20:03:35.329Z,14.14
2018-11-02T20:06:04.522Z,14.21
2018-11-02T20:08:33.634Z,14.18
2018-11-02T20:11:02.630Z,14.13
2018-11-02T20:13:31.757Z,14.34
2018-11-02T20:16:00.818Z,14.37
2018-11-02T20:18:29.718Z,14.36
2018-11-02T20:20:58.642Z,14.43
2018-11-02T20:23:27.949Z,14.50
2018-11-02T20:25:57.347Z,14.55
2018-11-02T20:28:26.667Z,14.60
2018-11-02T20:33:29.713Z,14.56
2018-11-02T20:35:58.801Z,14.53
2018-11-02T20:38:28.038Z,14.50
2018-11-02T20:40:57.234Z,14.45
2018-11-02T20:43:26.098Z,14.46
2018-11-02T20:45:55.074Z,14.48
2018-11-02T20:48:24.226Z,14.46
2018-11-02T20:50:53.408Z,14.43
2018-11-02T20:53:22.619Z,14.42
2018-11-02T20:55:51.812Z,14.47
2018-11-02T20:58:20.590Z,14.54
2018-11-02T21:00:49.537Z,14.47
2018-11-02T21:03:18.395Z,14.54
2018-11-02T21:05:47.306Z,14.66
2018-11-02T21:08:16.439Z,14.70
2018-11-02T21:10:45.475Z,14.76
2018-11-02T21:13:14.558Z,14.78
2018-11-02T21:15:43.682Z,14.75
2018-11-02T21:18:12.637Z,14.77
2018-11-02T21:20:41.862Z,14.62
2018-11-02T21:23:10.939Z,14.63
2018-11-02T21:25:40.154Z,14.65
2018-11-02T21:28:09.433Z,14.68
2018-11-02T21:30:38.607Z,14.75
2018-11-02T21:33:07.334Z,14.74
2018-11-02T21:35:36.547Z,14.77
2018-11-02T21:38:05.695Z,14.83
2018-11-02T21:40:34.654Z,14.83
2018-11-02T21:43:03.776Z,14.91
2018-11-02T21:45:32.974Z,14.93
2018-11-02T21:48:01.702Z,15.10
2018-11-02T21:50:30.845Z,15.02
2018-11-02T21:52:59.870Z,15.03
2018-11-02T21:55:29.062Z,15.10
2018-11-02T21:57:58.372Z,15.15
2018-11-02T22:00:27.522Z,15.24
2018-11-02T22:02:56.753Z,15.31
2018-11-02T22:05:26.059Z,15.13
2018-11-02T22:07:55.235Z,14.94
2018-11-02T22:10:24.422Z,14.90
2018-11-02T22:12:53.426Z,14.97
2018-11-02T22:15:22.722Z,14.92
2018-11-02T22:17:51.923Z,14.68
2018-11-02T22:20:20.950Z,14.65
2018-11-02T22:22:50.158Z,14.67
2018-11-02T22:25:19.314Z,14.72
2018-11-02T22:27:48.502Z,14.77
2018-11-02T22:30:18.218Z,14.89
2018-11-02T22:32:47.529Z,14.70
2018-11-02T22:35:17.039Z,14.58
2018-11-02T22:37:46.422Z,14.50
2018-11-02T22:40:15.654Z,14.41
2018-11-02T22:42:45.122Z,14.62
2018-11-02T22:45:14.993Z,14.59
2018-11-02T22:47:48.183Z,14.73
2018-11-02T22:50:17.318Z,14.79
2018-11-02T22:52:46.570Z,14.86
2018-11-02T22:55:15.518Z,14.87
2018-11-02T22:57:44.527Z,15.00
2018-11-02T23:00:16.190Z,15.00
2018-11-02T23:02:46.099Z,14.89
2018-11-02T23:05:15.206Z,14.75
2018-11-02T23:07:44.782Z,14.71
2018-11-02T23:10:14.076Z,14.82
2018-11-02T23:12:43.162Z,14.90
2018-11-02T23:15:12.878Z,14.67
2018-11-02T23:17:42.233Z,14.74
2018-11-02T23:20:13.113Z,14.69
2018-11-02T23:22:42.426Z,14.77
2018-11-02T23:25:12.073Z,14.78
2018-11-02T23:27:42.244Z,14.83
2018-11-02T23:30:11.764Z,14.85
2018-11-02T23:32:40.746Z,14.87
2018-11-02T23:35:11.042Z,14.84
2018-11-02T23:37:40.190Z,14.84
2018-11-02T23:40:10.773Z,14.85
2018-11-02T23:42:39.884Z,14.87
2018-11-02T23:45:09.734Z,14.68
2018-11-02T23:47:39.039Z,14.53
2018-11-02T23:50:09.922Z,14.43
2018-11-02T23:52:38.937Z,14.38
2018-11-02T23:55:08.029Z,14.29
2018-11-02T23:57:37.158Z,14.25
